Time;durP1;ratioP1;P1;durP2;ratioP2;P2;SDS_P1;SDS_P2;PMS_P1;PMS_P2;Temp;Humidity;BMP_temperature;BMP_pressure;BME280_temperature;BME280_humidity;BME280_pressure;Samples;Min_cycle;Max_cycle;Signal;HPM_P1;HPM_P2
2023/03/25 00:04:04;;;;;;;10.30;8.70;;;;;;;6.78;99.20;98356.17;435013;1259;139677;-64
2023/03/25 00:14:11;;;;;;;9.70;8.70;;;;;;;6.67;99.62;98344.77;435934;1257;139218;-62
2023/03/25 00:24:17;;;;;;;10.30;8.10;;;;;;;6.60;99.99;98350.59;435122;1256;140523;-62
2023/03/25 00:34:23;;;;;;;10.20;8.40;;;;;;;6.57;100.00;98349.92;435032;1255;140724;-63
2023/03/25 00:44:28;;;;;;;13.20;11.10;;;;;;;6.42;100.00;98342.38;434674;1257;140297;-62
2023/03/25 00:54:34;;;;;;;19.20;12.90;;;;;;;6.25;100.00;98342.34;434498;1256;140729;-63
2023/03/25 01:04:41;;;;;;;16.80;12.30;;;;;;;6.10;100.00;98336.66;434402;1256;141041;-63
2023/03/25 01:14:47;;;;;;;14.40;10.90;;;;;;;6.03;100.00;98340.60;434744;1256;166995;-62
2023/03/25 01:24:54;;;;;;;10.80;8.80;;;;;;;6.04;100.00;98339.52;434573;1260;139686;-63
2023/03/25 01:35:00;;;;;;;13.00;9.80;;;;;;;5.98;100.00;98341.23;434850;1256;140223;-63
2023/03/25 01:45:20;;;;;;;10.60;8.90;;;;;;;5.79;100.00;98335.34;434639;1256;139045;-64
2023/03/25 01:55:27;;;;;;;12.60;9.70;;;;;;;5.79;100.00;98328.38;434937;1257;139581;-63
2023/03/25 02:05:42;;;;;;;16.50;9.10;;;;;;;5.83;100.00;98327.79;434640;1257;140149;-63
2023/03/25 02:16:00;;;;;;;12.60;9.00;;;;;;;5.77;100.00;98335.64;434611;1257;141847;-64
2023/03/25 02:26:31;;;;;;;11.50;8.80;;;;;;;5.54;100.00;98341.61;434964;1259;139158;-64
2023/03/25 02:36:56;;;;;;;13.10;10.50;;;;;;;5.30;100.00;98332.86;435927;1257;140347;-62
2023/03/25 02:47:05;;;;;;;12.00;9.40;;;;;;;5.13;100.00;98336.00;435323;1256;140495;-63
2023/03/25 02:57:15;;;;;;;12.40;10.10;;;;;;;5.11;100.00;98323.42;435424;1258;139612;-64
2023/03/25 03:07:26;;;;;;;11.00;9.90;;;;;;;5.12;100.00;98312.64;435123;1257;139715;-63
2023/03/25 03:17:42;;;;;;;8.90;8.00;;;;;;;5.11;100.00;98319.46;434652;1257;139507;-64
2023/03/25 03:27:56;;;;;;;9.90;8.80;;;;;;;5.08;100.00;98321.53;435068;1259;138931;-62
2023/03/25 03:38:08;;;;;;;9.20;7.70;;;;;;;5.05;100.00;98328.97;434636;1256;139206;-62
2023/03/25 03:48:17;;;;;;;8.40;7.10;;;;;;;5.01;100.00;98332.55;434636;1257;139163;-63
2023/03/25 03:58:28;;;;;;;17.80;12.30;;;;;;;4.89;100.00;98326.14;435188;1259;139275;-63
2023/03/25 04:08:45;;;;;;;12.10;9.80;;;;;;;4.89;100.00;98324.45;435029;1254;140036;-62
2023/03/25 04:18:52;;;;;;;13.20;11.90;;;;;;;4.89;100.00;98326.50;435085;1259;140204;-63
2023/03/25 04:28:59;;;;;;;14.10;12.60;;;;;;;4.85;100.00;98336.41;435169;1259;140145;-62
2023/03/25 04:39:06;;;;;;;11.70;10.50;;;;;;;4.70;100.00;98356.91;435337;1259;140300;-62
2023/03/25 04:49:20;;;;;;;11.20;10.10;;;;;;;4.56;100.00;98357.95;434788;1259;141196;-63
2023/03/25 04:59:27;;;;;;;10.60;9.40;;;;;;;4.57;100.00;98353.39;435189;1259;142055;-63
2023/03/25 05:09:32;;;;;;;14.40;12.00;;;;;;;4.72;100.00;98358.04;435384;1259;139550;-62
2023/03/25 05:19:42;;;;;;;13.50;11.40;;;;;;;5.02;100.00;98357.47;434937;1257;141311;-63
2023/03/25 05:29:48;;;;;;;14.00;12.20;;;;;;;5.30;100.00;98362.88;434839;1260;141136;-63
2023/03/25 05:39:55;;;;;;;13.10;10.30;;;;;;;5.59;100.00;98356.23;434701;1260;139275;-62
2023/03/25 05:50:01;;;;;;;16.20;14.00;;;;;;;5.99;100.00;98359.08;434923;1260;140385;-62
2023/03/25 06:00:11;;;;;;;11.10;10.00;;;;;;;8.00;100.00;98366.31;434542;1259;139839;-63
2023/03/25 06:10:18;;;;;;;9.20;8.20;;;;;;;11.26;100.00;98358.09;435236;1259;139280;-66
2023/03/25 06:20:24;;;;;;;6.10;5.60;;;;;;;18.68;94.82;98337.65;436966;1259;139213;-62
2023/03/25 06:30:30;;;;;;;5.30;4.60;;;;;;;21.11;82.26;98342.33;435059;1260;139113;-67
2023/03/25 06:40:36;;;;;;;5.10;4.40;;;;;;;23.36;74.58;98346.80;435124;1254;140084;-62
2023/03/25 06:50:44;;;;;;;4.90;4.00;;;;;;;22.07;68.01;98353.66;435210;1255;139221;-63
2023/03/25 07:00:53;;;;;;;;;;;;;;;20.01;67.57;98354.61;436822;1255;139037;-62
2023/03/25 07:11:04;;;;;;;6.10;4.40;;;;;;;18.47;67.28;98349.54;435338;1254;126483;-63
2023/03/25 07:21:10;;;;;;;5.00;4.50;;;;;;;16.21;67.88;98355.55;437367;1254;138450;-63
2023/03/25 07:31:16;;;;;;;5.40;3.50;;;;;;;15.02;71.09;98360.70;434935;1255;138521;-65
2023/03/25 07:41:22;;;;;;;6.00;3.90;;;;;;;17.91;69.31;98353.02;435125;1254;140401;-63
2023/03/25 07:51:29;;;;;;;4.60;3.90;;;;;;;18.63;66.98;98342.73;435140;1259;138326;-63
2023/03/25 08:01:34;;;;;;;7.30;3.70;;;;;;;25.03;59.65;98333.70;434715;1260;139865;-64
2023/03/25 08:11:39;;;;;;;;;;;;;;;28.67;49.42;98326.02;435039;1258;138932;-63
2023/03/25 08:21:45;;;;;;;7.00;3.60;;;;;;;30.82;44.80;98333.02;435535;1254;125642;-62
2023/03/25 08:31:51;;;;;;;3.60;2.60;;;;;;;28.74;42.98;98330.06;435255;1254;139094;-63
2023/03/25 08:41:57;;;;;;;4.20;2.80;;;;;;;28.71;40.99;98320.90;435791;1257;138959;-63
2023/03/25 08:52:07;;;;;;;5.70;2.90;;;;;;;23.85;42.07;98315.45;435047;1257;138760;-63
2023/03/25 09:02:13;;;;;;;7.20;3.20;;;;;;;19.77;45.23;98305.95;436047;1258;139311;-64
2023/03/25 09:12:19;;;;;;;5.30;2.90;;;;;;;18.83;47.30;98303.79;435496;1254;138902;-62
2023/03/25 09:22:25;;;;;;;3.30;2.50;;;;;;;19.75;47.90;98298.69;434965;1254;138554;-65
2023/03/25 09:32:31;;;;;;;5.30;2.20;;;;;;;18.71;47.34;98297.23;435995;1258;139375;-65
2023/03/25 09:42:45;;;;;;;9.20;3.50;;;;;;;17.04;49.28;98306.05;435455;1254;139255;-63
2023/03/25 09:52:57;;;;;;;8.40;2.90;;;;;;;15.76;51.34;98314.73;435144;1255;138819;-63
2023/03/25 10:03:12;;;;;;;6.90;2.60;;;;;;;14.49;54.77;98316.36;435725;1254;138865;-64
2023/03/25 10:13:27;;;;;;;5.20;2.10;;;;;;;14.46;56.34;98310.40;435287;1256;139837;-63
2023/03/25 10:23:38;;;;;;;5.50;1.90;;;;;;;15.16;55.58;98287.77;435507;1255;138797;-63
2023/03/25 10:33:50;;;;;;;3.10;1.40;;;;;;;15.78;54.37;98279.95;436209;1254;139693;-64
2023/03/25 10:43:56;;;;;;;5.70;1.90;;;;;;;15.70;54.01;98271.11;435404;1259;138862;-63
2023/03/25 10:54:02;;;;;;;6.60;1.80;;;;;;;13.82;57.28;98314.36;435858;1254;139058;-63
2023/03/25 11:04:11;;;;;;;3.90;2.20;;;;;;;11.72;61.35;98336.47;435378;1254;139137;-63
2023/03/25 11:14:21;;;;;;;4.10;2.20;;;;;;;11.26;65.09;98321.91;435175;1254;138999;-65
2023/03/25 11:24:34;;;;;;;4.50;2.30;;;;;;;12.23;66.42;98309.31;435463;1254;139499;-63
2023/03/25 11:34:41;;;;;;;3.20;2.90;;;;;;;13.26;65.90;98285.55;435475;1254;140994;-63
2023/03/25 11:44:51;;;;;;;;;;;;;;;13.23;66.25;98262.17;435147;1255;139439;-64
2023/03/25 11:54:58;;;;;;;2.30;2.10;;;;;;;13.59;65.01;98243.92;434789;1254;127612;-63
2023/03/25 12:05:11;;;;;;;3.40;1.70;;;;;;;13.65;63.92;98234.23;435414;1254;141059;-63
2023/03/25 12:15:32;;;;;;;2.70;2.50;;;;;;;13.77;64.01;98218.14;435657;1254;141015;-64
2023/03/25 12:25:54;;;;;;;3.10;1.70;;;;;;;13.69;62.98;98215.05;435176;1259;141032;-65
2023/03/25 12:36:17;;;;;;;1.50;1.10;;;;;;;13.54;62.70;98210.54;435277;1254;139931;-63
2023/03/25 12:46:39;;;;;;;4.30;2.60;;;;;;;13.26;62.97;98196.66;434991;1254;138951;-63
2023/03/25 12:56:54;;;;;;;2.00;1.30;;;;;;;13.04;63.08;98195.24;435019;1258;139597;-64
2023/03/25 13:07:04;;;;;;;0.80;0.20;;;;;;;12.76;62.35;98226.13;435434;1254;140139;-63
2023/03/25 13:17:21;;;;;;;0.80;0.60;;;;;;;11.16;62.98;98253.71;435670;1254;150653;-63
2023/03/25 13:27:33;;;;;;;3.20;0.80;;;;;;;10.13;66.32;98241.64;435593;1255;138560;-65
2023/03/25 13:37:43;;;;;;;1.30;0.90;;;;;;;9.59;69.42;98224.02;435458;1254;140296;-63
2023/03/25 13:47:53;;;;;;;1.50;0.80;;;;;;;10.20;70.61;98207.15;435576;1257;139494;-64
2023/03/25 13:58:33;;;;;;;1.20;1.10;;;;;;;11.27;70.34;98205.13;435477;1259;138982;-63
2023/03/25 14:09:08;;;;;;;3.00;1.90;;;;;;;11.34;69.82;98195.81;435527;1255;140475;-65
2023/03/25 14:19:19;;;;;;;2.90;1.80;;;;;;;10.90;70.27;98191.55;435408;1257;140355;-64
2023/03/25 14:29:36;;;;;;;4.60;3.10;;;;;;;10.65;70.90;98186.70;435276;1256;140583;-63
2023/03/25 14:39:42;;;;;;;1.80;1.40;;;;;;;10.97;70.97;98182.02;435591;1255;139022;-64
2023/03/25 14:49:53;;;;;;;1.80;1.20;;;;;;;11.18;70.10;98180.23;435753;1256;140698;-64
2023/03/25 15:00:08;;;;;;;3.20;1.20;;;;;;;11.30;69.59;98171.31;434821;1257;139689;-64
2023/03/25 15:10:30;;;;;;;3.30;1.40;;;;;;;11.51;69.17;98171.32;434797;1256;139879;-64
2023/03/25 15:20:36;;;;;;;3.30;3.00;;;;;;;11.47;69.04;98170.08;434931;1260;139104;-64
2023/03/25 15:31:12;;;;;;;3.10;2.20;;;;;;;11.30;69.17;98174.95;434777;1255;140546;-62
2023/03/25 15:41:33;;;;;;;4.40;3.60;;;;;;;11.18;69.82;98174.03;434958;1255;140330;-64
2023/03/25 15:52:04;;;;;;;5.10;2.90;;;;;;;11.01;70.30;98168.24;434819;1260;139177;-64
2023/03/25 16:02:25;;;;;;;3.10;1.60;;;;;;;10.92;69.75;98181.05;434964;1258;140067;-62
2023/03/25 16:12:31;;;;;;;3.40;1.60;;;;;;;10.71;68.76;98194.96;446139;1255;139499;-63
2023/03/25 16:22:37;;;;;;;1.80;1.30;;;;;;;10.81;69.46;98194.32;435253;1258;140143;-64
2023/03/25 16:32:43;;;;;;;2.60;1.50;;;;;;;11.23;69.04;98192.73;435279;1259;140017;-63
2023/03/25 16:42:49;;;;;;;2.90;1.30;;;;;;;10.83;68.34;98200.60;434753;1254;142195;-63
2023/03/25 16:53:01;;;;;;;2.60;2.00;;;;;;;10.26;69.18;98206.25;435354;1254;140232;-63
2023/03/25 17:03:13;;;;;;;2.80;2.00;;;;;;;9.81;70.33;98221.37;435344;1256;139381;-62
2023/03/25 17:13:24;;;;;;;3.10;2.00;;;;;;;9.49;70.87;98238.78;435471;1254;139795;-62
2023/03/25 17:23:43;;;;;;;2.30;0.90;;;;;;;9.11;70.64;98244.75;435115;1257;141222;-64
2023/03/25 17:33:54;;;;;;;2.00;0.90;;;;;;;8.65;69.91;98250.47;435194;1257;139750;-63
2023/03/25 17:44:00;;;;;;;0.90;0.60;;;;;;;8.20;70.40;98263.78;435969;1256;139151;-63
2023/03/25 17:54:06;;;;;;;2.60;1.40;;;;;;;7.83;70.69;98270.86;434915;1255;139782;-64
2023/03/25 18:04:13;;;;;;;2.30;1.80;;;;;;;7.46;71.56;98268.29;435038;1255;139660;-66
2023/03/25 18:14:20;;;;;;;4.40;2.00;;;;;;;7.10;72.43;98273.11;435137;1256;138901;-65
2023/03/25 18:24:26;;;;;;;5.90;4.00;;;;;;;6.70;73.30;98276.92;434545;1259;140830;-65
2023/03/25 18:34:33;;;;;;;8.90;6.30;;;;;;;6.31;74.39;98274.98;441529;1258;139889;-66
2023/03/25 18:44:40;;;;;;;15.60;12.60;;;;;;;6.09;75.26;98276.64;434832;1259;139411;-64
2023/03/25 18:54:46;;;;;;;18.80;9.10;;;;;;;6.00;76.28;98283.13;444689;1256;140811;-65
2023/03/25 19:04:52;;;;;;;19.40;10.40;;;;;;;5.84;76.59;98279.13;435245;1256;139637;-65
2023/03/25 19:15:07;;;;;;;27.50;13.90;;;;;;;5.66;77.30;98273.14;435406;1256;139354;-65
2023/03/25 19:25:14;;;;;;;17.30;11.10;;;;;;;5.58;77.79;98271.75;435334;1259;140286;-66
2023/03/25 19:35:22;;;;;;;14.60;10.30;;;;;;;5.44;77.86;98276.27;434878;1256;139196;-66
2023/03/25 19:45:32;;;;;;;49.50;27.00;;;;;;;5.29;78.23;98266.79;434796;1256;139593;-65
2023/03/25 19:55:41;;;;;;;29.90;16.30;;;;;;;5.12;78.83;98262.46;434896;1259;140514;-64
2023/03/25 20:05:47;;;;;;;29.60;16.60;;;;;;;4.96;79.46;98265.92;436198;1259;139327;-65
2023/03/25 20:15:53;;;;;;;15.90;8.70;;;;;;;4.89;79.89;98265.48;435523;1256;139145;-65
2023/03/25 20:26:00;;;;;;;11.70;6.20;;;;;;;4.81;79.90;98272.55;434966;1259;139441;-64
2023/03/25 20:36:07;;;;;;;13.70;7.90;;;;;;;4.72;80.32;98278.78;435056;1254;140260;-65
2023/03/25 20:46:14;;;;;;;11.50;6.80;;;;;;;4.66;80.52;98279.67;435548;1259;139493;-65
2023/03/25 20:56:20;;;;;;;38.80;17.90;;;;;;;4.57;80.44;98266.88;436160;1259;140864;-73
2023/03/25 21:06:26;;;;;;;27.60;13.80;;;;;;;4.39;80.81;98266.24;438069;1259;140359;-73
2023/03/25 21:16:34;;;;;;;26.90;13.30;;;;;;;4.15;81.27;98268.30;438063;1256;139130;-73
2023/03/25 21:26:40;;;;;;;24.50;14.70;;;;;;;3.90;82.18;98274.46;438026;1256;139853;-73
2023/03/25 21:36:45;;;;;;;13.30;7.40;;;;;;;3.85;83.00;98271.26;437950;1259;139664;-74
2023/03/25 21:46:53;;;;;;;11.40;6.60;;;;;;;4.08;83.39;98267.83;437870;1255;140147;-74
2023/03/25 21:57:03;;;;;;;8.20;5.40;;;;;;;4.36;83.61;98262.77;437982;1256;139017;-73
2023/03/25 22:07:09;;;;;;;7.20;5.00;;;;;;;4.65;83.48;98268.83;437957;1259;139446;-74
2023/03/25 22:17:15;;;;;;;5.90;3.00;;;;;;;4.85;83.03;98276.81;437965;1259;139690;-74
2023/03/25 22:27:21;;;;;;;5.20;2.90;;;;;;;5.07;83.11;98271.46;437924;1258;139115;-73
2023/03/25 22:37:27;;;;;;;3.20;2.70;;;;;;;5.36;83.52;98268.95;437689;1257;139869;-73
2023/03/25 22:47:33;;;;;;;3.80;2.90;;;;;;;5.50;83.79;98267.08;437826;1256;140572;-74
2023/03/25 22:57:39;;;;;;;5.10;4.40;;;;;;;5.51;84.37;98271.00;435511;1259;139838;-70
2023/03/25 23:07:45;;;;;;;5.70;5.10;;;;;;;5.51;85.01;98274.80;437724;1259;139382;-69
2023/03/25 23:17:51;;;;;;;5.10;4.10;;;;;;;5.51;85.35;98276.54;435306;1256;141053;-68
2023/03/25 23:27:57;;;;;;;7.50;4.90;;;;;;;5.46;85.73;98283.05;437860;1257;139183;-70
2023/03/25 23:38:03;;;;;;;6.60;5.00;;;;;;;5.47;85.98;98283.55;437774;1259;140561;-69
2023/03/25 23:48:11;;;;;;;6.50;4.90;;;;;;;5.48;85.90;98278.30;435556;1258;140741;-72
2023/03/25 23:58:17;;;;;;;5.90;4.70;;;;;;;5.44;85.32;98274.54;438028;1259;141362;-70
